Terminal Aerodrome Forecast
Issued by NWS Tulsa, OK

Current Version | Previous Version | Text Only | Print | Product List | Glossary On
Versions: 1 2 3 4 5 6 7 8 9 10 11 12 13 14 15 16 17
000
FTUS44 KTSA 192340
TAFFSM
TAF
KFSM 192340Z 2000/2024 05009KT P6SM SKC
     FM200300 09006KT 5SM BR OVC025
     FM200900 07004KT 4SM BR OVC015
     FM201200 10004KT 2SM BR OVC015
     FM201500 13009KT 4SM BR OVC025
     FM201800 21012KT P6SM SCT250=

USA.gov is the U.S. government's official web portal to all federal, state and local government web resources and services.